Terminal Aerodrome Forecast
Issued by NWS

Home | Current Version | Previous Version | Text Only | Print | Product List | Glossary On
Versions: 1 2 3 4 5 6 7 8 9 10 11 12 13 14 15 16 17 18
000
FTUS46 KPDT 232332
TAFBDN
TAF
KBDN 232332Z 2400/2424 36005KT P6SM SCT030
     FM240300 28003KT 3SM BR BKN006
     FM241200 VRB03KT 5SM BR SCT005 BKN100
     FM241900 34005KT P6SM SCT020=

USA.gov is the U.S. government's official web portal to all federal, state and local government web resources and services.